YD0BCX-2 台站信息

YD0BCX-2 YD0BCX-2    新窗口  历史数据
消息: Time: 2026-09-05 01:00:00, Temp: 27°C, Desc: Sunny, WS: 2 m/s, Hum: 73 %
最新位置: 106°51'44" E 6°10'56" S (OI33KT)   
最近时间: 2026-09-05 02:07:16
最新传递路径: YD0BCX-2>APDW17,WIDE1-1,qAS,YD0BCX-6
数据包: 29    (导出KML文件)(导出GPX文件)
设备: WB2OSZ:DireWolf()
其他SSID:
YD0BCX-2当前位置附近的台站
呼号 距离 位置时刻
YB1TS YB1TS 23.13km 235° 2026-09-05 02:07:12.248
YD0BYA-D YD0BYA-D 18.33km 280° 2026-09-05 02:05:04.467
YB1TJ-2 YB1TJ-2 20.43km 235° 2026-09-05 02:03:06.078
YD0NXX-11 YD0NXX-11 12.26km 224° 2026-09-05 01:27:41.2
YD1CHS-1 YD1CHS-1 11.95km 239° 2026-09-05 02:09:04.188
YH0CO-2 YH0CO-2 14.28km 199° 2026-09-05 02:05:06.382
YC0TBU YC0TBU 14.15km 212° 2026-09-05 02:06:30.748
YC0TBU-11 YC0TBU-11 14.14km 212° 2026-09-05 02:10:59.251
YB0ARY-13 YB0ARY-13 12.08km 183° 2026-09-05 02:08:10.132
YC0ACE-6 YC0ACE-6 9.63km 233° 2026-09-05 01:57:42.694
YC0RVQ-1 YC0RVQ-1 15.99km 265° 2026-09-05 02:08:59.876
YD1RUH YD1RUH 15.70km 269° 2026-09-05 02:08:25.652
B25IHN-5 B25IHN-5 1.58km 122° 2026-09-04 23:02:01.413
YH0AA YH0AA 5.06km 287° 2026-09-05 01:57:40.025
YD0BUQ YD0BUQ 4.04km 315° 2026-09-05 01:01:10.745
YH0AG YH0AG 11.79km 305° 2026-09-05 01:50:25.756
YH0AGV-B YH0AGV-B 8.97km 301° 2026-09-05 02:11:25.31
YD3ADI-13 YD3ADI-13 5.70km 344° 2026-09-05 02:03:41.677
YC0TBU-1 YC0TBU-1 25.32km 197° 2026-09-05 02:11:29.108
YB1DDK-1 YB1DDK-1 25.53km 187° 2026-09-05 01:54:26.7
YH1RIX-2 YH1RIX-2 22.21km 227° 2026-09-05 02:05:14.828
YH0AC-1 YH0AC-1 17.34km 209° 2026-09-05 02:07:02.135
YB0AUX-7 YB0AUX-7 16.97km 210° 2026-09-05 01:12:14.787
YD0BOQ-2 YD0BOQ-2 14.73km 166° 2026-09-05 01:56:34.478
YC0NLL-N YC0NLL-N 9.41km 150° 2026-09-05 02:01:42.491
YC0NGA-11 YC0NGA-11 7.11km 141° 2026-09-05 02:01:39.62
YC3LDO YC3LDO 10.09km 107° 2026-09-05 02:11:01.784
YD0ABC-10 YD0ABC-10 2.95km 50° 2026-09-05 02:10:46.774
YB1CHAN YB1CHAN 17.14km 102° 2026-09-05 02:02:07.873
YH0DVRA-B YH0DVRA-B 26.65km 116° 2026-09-05 01:50:25.756
呼号 距离 位置时刻
YC1SDM-5 YC1SDM-5 20.00km 251° 2026-09-05 02:04:49.056
YB1TJ-1 YB1TJ-1 20.44km 235° 2026-09-05 02:10:24.833
YB1TJ YB1TJ 20.42km 235° 2026-09-05 02:11:18.975
YD0NXX-5 YD0NXX-5 12.57km 227° 2026-09-05 02:10:08.322
YH0CO-1 YH0CO-1 14.30km 199° 2026-09-05 01:50:11.043
YC0TBU-12 YC0TBU-12 14.17km 212° 2026-09-05 02:08:41.718
YC0TBU-4 YC0TBU-4 14.15km 212° 2026-09-05 02:05:42.683
YB0OSU-6 YB0OSU-6 12.65km 212° 2026-09-05 02:11:38.123
YB0OSU-10 YB0OSU-10 11.87km 214° 2026-09-05 02:11:38.717
YC0ACE-10 YC0ACE-10 9.55km 234° 2026-09-05 02:03:10.381
YD1RUH-3 YD1RUH-3 15.83km 269° 2026-09-05 02:06:25.559
YH0DVR-1 YH0DVR-1 5.14km 244° 2026-09-05 02:04:49.06
YC5KWZ-5 YC5KWZ-5 1.58km 122° 2026-09-04 23:05:47.098
YD0BCX-6 YD0BCX-6 0.00km 0° 2026-09-05 02:07:50.395
YD0RDD-3 YD0RDD-3 18.62km 287° 2026-09-05 01:59:19.588
YH0AGV B YH0AGV B 8.97km 301° 2026-09-05 02:11:15.472
YD3ADI-7 YD3ADI-7 5.71km 341° 2026-09-05 02:09:56.423
YC0TBU-3 YC0TBU-3 25.34km 198° 2026-09-05 02:09:23.292
YC0TBU-15 YC0TBU-15 25.32km 197° 2026-09-05 01:57:45.502
YB1DDK-2 YB1DDK-2 25.12km 186° 2026-09-05 02:11:11.583
YC0AQN YC0AQN 17.35km 210° 2026-09-04 23:27:58.445
YC0TGA-1 YC0TGA-1 17.08km 212° 2026-09-05 01:43:49.441
YB1SDL-2 YB1SDL-2 21.49km 196° 2026-09-05 02:01:08.532
YC0NLL-4 YC0NLL-4 9.41km 150° 2026-09-05 01:32:58.16
YC0NGA-5 YC0NGA-5 7.13km 142° 2026-09-05 01:53:08.252
YD0BCX-10 YD0BCX-10 1.75km 126° 2026-09-05 01:43:06.109
YC0ASW-2 YC0ASW-2 5.02km 71° 2026-09-05 02:11:33.87
YD1AFF-1 YD1AFF-1 16.85km 103° 2026-09-05 01:47:46.933
YH0DVN YH0DVN 17.19km 102° 2026-09-05 01:58:33.115
YD0BCX-2 YD0BCX-2